Country
Station

 

Weather  for  Yeonpyeungdo  -  Korea (Republic of)    Korea (Republic of)

  
3 °C (37 °F)
    
 
 

Current METAR for Yeonpyeungdo is :

RKSQ 261036Z 24007KT 2400 BR OVC002 03/02 A3001 RMK CIG002

 

This is a report for Yeonpyeungdo - Korea (Republic of).
 
The report was made 559 hours and 46 minutes ago, at 10:36 UTC .
The wind was blowing at a speed of 3.6 meters per second (8.1 miles per hour) from west/southwest (240°).
 
The temperature was 3 °C (37 °F), with a dew-point at 2 °C (36 °F).
The temperature felt like -1 °C (31 °F).
 
The atmospheric pressure was 1016 hPa (30.01 inHg).
The relative humidity was 93.1%.
 
The sky was overcast from a height of 61 meter (200 feet)
 
The overall visibility was 2400 meter (7874 feet).
 
Currently mist.

 
 
 
 

Country :   A   B   C   D   E   F   G   H   I   J   K   L   M   N   O   P   Q   R   S   T   U   V   W   Y   Z

 

Site Info  |  Disclaimer  |  Credits  |  Privacy
Contact us  |  Add to favorites
© 2013-2019 METARs - All rights reserved